Yellowstone National Park, Wyoming
Current Conditions -  °F | °C
As of 4:56 AM on Thursday 27 Nov 2014 (Local Time) from KDIJ Reporting Station
Clear Clear  
Wind Chill: 35°   Ceiling: Unl
Heat Index: 41°   Visibility: 10mi
Dew Point: 27°   Wind: 10mph
Humidity: 58%   Direction: 190°S
Pressure: 30.24"   Gusts: NA
Location:  44.5747°N, 110.518°W
Report Text: KDIJ 271156Z AUTO 19009KT 10SM CLR 05/M03 A3024 RMK AO2 58007 T00501027 10055 20038 SLP214
Loading
Personal Weather Stations






























Interactive Weather Map New forecast layout! Learn more

10-Day Weather Forecast

Advertisements
Track Severe Weather on mobile